sensor_id;sensor_type;location;lat;lon;timestamp;P1;durP1;ratioP1;P2;durP2;ratioP2
31906;SDS011;18455;50.858;13.662;2023-06-05T00:01:56;3.47;;;1.80;;
31906;SDS011;18455;50.858;13.662;2023-06-05T00:06:56;4.03;;;1.60;;
31906;SDS011;18455;50.858;13.662;2023-06-05T00:11:57;2.60;;;1.57;;
31906;SDS011;18455;50.858;13.662;2023-06-05T00:16:57;4.57;;;1.80;;
31906;SDS011;18455;50.858;13.662;2023-06-05T00:21:57;2.03;;;1.50;;
31906;SDS011;18455;50.858;13.662;2023-06-05T00:26:58;1.77;;;1.67;;
31906;SDS011;18455;50.858;13.662;2023-06-05T00:31:58;3.63;;;1.90;;
31906;SDS011;18455;50.858;13.662;2023-06-05T00:36:58;5.93;;;1.90;;
31906;SDS011;18455;50.858;13.662;2023-06-05T00:41:59;3.33;;;1.70;;
31906;SDS011;18455;50.858;13.662;2023-06-05T00:47:00;3.27;;;1.77;;
31906;SDS011;18455;50.858;13.662;2023-06-05T00:52:01;3.37;;;1.57;;
31906;SDS011;18455;50.858;13.662;2023-06-05T00:57:01;2.50;;;1.77;;
31906;SDS011;18455;50.858;13.662;2023-06-05T01:02:02;2.93;;;1.80;;
31906;SDS011;18455;50.858;13.662;2023-06-05T01:07:02;3.57;;;1.97;;
31906;SDS011;18455;50.858;13.662;2023-06-05T01:12:04;3.00;;;1.70;;
31906;SDS011;18455;50.858;13.662;2023-06-05T01:17:08;5.03;;;1.83;;
31906;SDS011;18455;50.858;13.662;2023-06-05T01:22:10;5.50;;;2.17;;
31906;SDS011;18455;50.858;13.662;2023-06-05T01:27:18;4.47;;;2.20;;
31906;SDS011;18455;50.858;13.662;2023-06-05T01:37:44;2.93;;;2.03;;
31906;SDS011;18455;50.858;13.662;2023-06-05T01:42:48;6.07;;;1.90;;
31906;SDS011;18455;50.858;13.662;2023-06-05T01:47:50;3.93;;;2.07;;
31906;SDS011;18455;50.858;13.662;2023-06-05T01:52:51;3.33;;;2.27;;
31906;SDS011;18455;50.858;13.662;2023-06-05T01:57:52;4.87;;;2.00;;
31906;SDS011;18455;50.858;13.662;2023-06-05T02:02:52;3.03;;;2.10;;
31906;SDS011;18455;50.858;13.662;2023-06-05T02:07:53;2.37;;;2.00;;
31906;SDS011;18455;50.858;13.662;2023-06-05T02:12:53;3.93;;;1.80;;
31906;SDS011;18455;50.858;13.662;2023-06-05T02:17:54;3.13;;;2.00;;
31906;SDS011;18455;50.858;13.662;2023-06-05T02:22:55;3.83;;;1.80;;
31906;SDS011;18455;50.858;13.662;2023-06-05T02:27:55;5.60;;;2.07;;
31906;SDS011;18455;50.858;13.662;2023-06-05T02:32:56;2.43;;;1.87;;
31906;SDS011;18455;50.858;13.662;2023-06-05T02:37:57;2.67;;;2.30;;
31906;SDS011;18455;50.858;13.662;2023-06-05T02:42:57;3.57;;;2.30;;
31906;SDS011;18455;50.858;13.662;2023-06-05T02:47:58;2.30;;;2.10;;
31906;SDS011;18455;50.858;13.662;2023-06-05T02:52:59;4.13;;;2.70;;
31906;SDS011;18455;50.858;13.662;2023-06-05T02:58:05;3.53;;;2.50;;
31906;SDS011;18455;50.858;13.662;2023-06-05T03:03:18;3.77;;;2.40;;
31906;SDS011;18455;50.858;13.662;2023-06-05T03:08:22;3.93;;;2.50;;
31906;SDS011;18455;50.858;13.662;2023-06-05T03:13:23;3.67;;;2.20;;
31906;SDS011;18455;50.858;13.662;2023-06-05T03:18:24;6.43;;;2.50;;
31906;SDS011;18455;50.858;13.662;2023-06-05T03:23:30;7.90;;;2.70;;
31906;SDS011;18455;50.858;13.662;2023-06-05T03:28:34;5.60;;;2.70;;
31906;SDS011;18455;50.858;13.662;2023-06-05T03:33:38;5.73;;;3.17;;
31906;SDS011;18455;50.858;13.662;2023-06-05T03:38:39;3.83;;;2.10;;
31906;SDS011;18455;50.858;13.662;2023-06-05T03:43:39;5.10;;;2.83;;
31906;SDS011;18455;50.858;13.662;2023-06-05T03:48:40;4.07;;;2.37;;
31906;SDS011;18455;50.858;13.662;2023-06-05T03:53:44;5.53;;;2.53;;
31906;SDS011;18455;50.858;13.662;2023-06-05T03:58:44;4.37;;;2.50;;
31906;SDS011;18455;50.858;13.662;2023-06-05T04:03:46;8.20;;;2.80;;
31906;SDS011;18455;50.858;13.662;2023-06-05T04:08:46;7.40;;;2.43;;
31906;SDS011;18455;50.858;13.662;2023-06-05T04:13:46;3.43;;;2.53;;
31906;SDS011;18455;50.858;13.662;2023-06-05T04:18:47;3.87;;;2.80;;
31906;SDS011;18455;50.858;13.662;2023-06-05T04:23:47;7.10;;;2.40;;
31906;SDS011;18455;50.858;13.662;2023-06-05T04:28:48;4.67;;;3.00;;
31906;SDS011;18455;50.858;13.662;2023-06-05T04:33:51;5.27;;;2.40;;
31906;SDS011;18455;50.858;13.662;2023-06-05T04:38:52;8.53;;;3.30;;
31906;SDS011;18455;50.858;13.662;2023-06-05T04:43:52;6.30;;;2.83;;
31906;SDS011;18455;50.858;13.662;2023-06-05T04:48:55;7.20;;;3.00;;
31906;SDS011;18455;50.858;13.662;2023-06-05T04:53:57;8.90;;;2.73;;
31906;SDS011;18455;50.858;13.662;2023-06-05T04:58:58;4.57;;;2.70;;
31906;SDS011;18455;50.858;13.662;2023-06-05T05:04:00;4.27;;;2.83;;
31906;SDS011;18455;50.858;13.662;2023-06-05T05:09:00;4.67;;;2.70;;
31906;SDS011;18455;50.858;13.662;2023-06-05T05:14:02;6.03;;;2.93;;
31906;SDS011;18455;50.858;13.662;2023-06-05T05:19:02;5.22;;;2.72;;
31906;SDS011;18455;50.858;13.662;2023-06-05T05:24:03;6.88;;;3.08;;
31906;SDS011;18455;50.858;13.662;2023-06-05T05:29:04;5.40;;;2.90;;
31906;SDS011;18455;50.858;13.662;2023-06-05T05:34:04;7.20;;;2.67;;
31906;SDS011;18455;50.858;13.662;2023-06-05T05:39:05;3.80;;;2.42;;
31906;SDS011;18455;50.858;13.662;2023-06-05T05:44:07;9.75;;;3.97;;
31906;SDS011;18455;50.858;13.662;2023-06-05T05:49:08;8.25;;;3.05;;
31906;SDS011;18455;50.858;13.662;2023-06-05T05:54:08;3.30;;;2.58;;
31906;SDS011;18455;50.858;13.662;2023-06-05T05:59:08;5.95;;;2.85;;
31906;SDS011;18455;50.858;13.662;2023-06-05T06:04:09;8.80;;;2.63;;
31906;SDS011;18455;50.858;13.662;2023-06-05T06:09:09;10.15;;;2.58;;
31906;SDS011;18455;50.858;13.662;2023-06-05T06:14:10;9.82;;;3.00;;
31906;SDS011;18455;50.858;13.662;2023-06-05T06:19:10;5.35;;;2.83;;
31906;SDS011;18455;50.858;13.662;2023-06-05T06:24:14;6.40;;;2.60;;
31906;SDS011;18455;50.858;13.662;2023-06-05T06:29:19;7.20;;;2.50;;
31906;SDS011;18455;50.858;13.662;2023-06-05T06:34:20;6.22;;;3.15;;
31906;SDS011;18455;50.858;13.662;2023-06-05T06:39:20;5.95;;;2.58;;
31906;SDS011;18455;50.858;13.662;2023-06-05T06:44:22;3.50;;;2.30;;
31906;SDS011;18455;50.858;13.662;2023-06-05T06:49:22;4.20;;;2.50;;
31906;SDS011;18455;50.858;13.662;2023-06-05T06:54:23;5.10;;;2.20;;
31906;SDS011;18455;50.858;13.662;2023-06-05T06:59:25;3.78;;;2.40;;
31906;SDS011;18455;50.858;13.662;2023-06-05T07:04:25;3.55;;;2.63;;
31906;SDS011;18455;50.858;13.662;2023-06-05T07:09:26;6.25;;;2.40;;
31906;SDS011;18455;50.858;13.662;2023-06-05T07:14:26;3.03;;;2.25;;
31906;SDS011;18455;50.858;13.662;2023-06-05T07:19:28;4.90;;;2.33;;
31906;SDS011;18455;50.858;13.662;2023-06-05T07:24:28;6.38;;;2.33;;
31906;SDS011;18455;50.858;13.662;2023-06-05T07:29:30;4.15;;;2.30;;
31906;SDS011;18455;50.858;13.662;2023-06-05T07:34:30;3.22;;;2.03;;
31906;SDS011;18455;50.858;13.662;2023-06-05T07:39:31;3.72;;;2.15;;
31906;SDS011;18455;50.858;13.662;2023-06-05T07:44:31;6.30;;;2.05;;
31906;SDS011;18455;50.858;13.662;2023-06-05T07:49:31;4.13;;;2.53;;
31906;SDS011;18455;50.858;13.662;2023-06-05T07:54:32;9.55;;;2.53;;
31906;SDS011;18455;50.858;13.662;2023-06-05T07:59:32;6.38;;;2.35;;
31906;SDS011;18455;50.858;13.662;2023-06-05T08:04:33;7.53;;;2.20;;
31906;SDS011;18455;50.858;13.662;2023-06-05T08:09:33;6.03;;;2.30;;
31906;SDS011;18455;50.858;13.662;2023-06-05T08:14:36;3.15;;;1.88;;
31906;SDS011;18455;50.858;13.662;2023-06-05T08:19:37;5.05;;;2.47;;
31906;SDS011;18455;50.858;13.662;2023-06-05T08:24:37;5.53;;;2.27;;
31906;SDS011;18455;50.858;13.662;2023-06-05T08:29:38;4.95;;;2.35;;
31906;SDS011;18455;50.858;13.662;2023-06-05T08:34:38;4.55;;;3.00;;
31906;SDS011;18455;50.858;13.662;2023-06-05T08:39:38;3.87;;;2.47;;
31906;SDS011;18455;50.858;13.662;2023-06-05T08:44:39;5.00;;;2.63;;
31906;SDS011;18455;50.858;13.662;2023-06-05T08:49:41;6.00;;;2.53;;
31906;SDS011;18455;50.858;13.662;2023-06-05T08:54:41;4.72;;;2.45;;
31906;SDS011;18455;50.858;13.662;2023-06-05T08:59:42;8.25;;;2.50;;
31906;SDS011;18455;50.858;13.662;2023-06-05T09:04:43;6.97;;;2.45;;
31906;SDS011;18455;50.858;13.662;2023-06-05T09:09:43;2.67;;;2.40;;
31906;SDS011;18455;50.858;13.662;2023-06-05T09:14:44;4.55;;;2.60;;
31906;SDS011;18455;50.858;13.662;2023-06-05T09:19:44;3.88;;;2.47;;
31906;SDS011;18455;50.858;13.662;2023-06-05T09:24:47;4.85;;;2.75;;
31906;SDS011;18455;50.858;13.662;2023-06-05T09:30:01;5.00;;;2.50;;
31906;SDS011;18455;50.858;13.662;2023-06-05T09:35:03;3.95;;;3.00;;
31906;SDS011;18455;50.858;13.662;2023-06-05T09:40:05;3.22;;;2.65;;
31906;SDS011;18455;50.858;13.662;2023-06-05T09:45:08;5.15;;;2.67;;
31906;SDS011;18455;50.858;13.662;2023-06-05T09:50:20;9.50;;;3.10;;
31906;SDS011;18455;50.858;13.662;2023-06-05T09:55:21;7.40;;;2.88;;
31906;SDS011;18455;50.858;13.662;2023-06-05T10:00:23;12.60;;;2.88;;
31906;SDS011;18455;50.858;13.662;2023-06-05T10:05:24;4.88;;;3.30;;
31906;SDS011;18455;50.858;13.662;2023-06-05T10:10:26;5.95;;;3.08;;
31906;SDS011;18455;50.858;13.662;2023-06-05T10:15:26;7.18;;;3.38;;
31906;SDS011;18455;50.858;13.662;2023-06-05T10:20:27;4.97;;;2.85;;
31906;SDS011;18455;50.858;13.662;2023-06-05T10:25:28;6.50;;;3.05;;
31906;SDS011;18455;50.858;13.662;2023-06-05T10:41:19;4.80;;;2.95;;
31906;SDS011;18455;50.858;13.662;2023-06-05T10:56:52;6.47;;;3.33;;
31906;SDS011;18455;50.858;13.662;2023-06-05T11:07:20;6.28;;;3.25;;
31906;SDS011;18455;50.858;13.662;2023-06-05T11:12:21;6.25;;;3.03;;
31906;SDS011;18455;50.858;13.662;2023-06-05T11:17:28;5.60;;;3.15;;
31906;SDS011;18455;50.858;13.662;2023-06-05T11:22:29;4.18;;;3.30;;
31906;SDS011;18455;50.858;13.662;2023-06-05T11:27:43;5.55;;;3.38;;
31906;SDS011;18455;50.858;13.662;2023-06-05T11:32:44;8.40;;;3.60;;
31906;SDS011;18455;50.858;13.662;2023-06-05T11:37:45;6.40;;;3.30;;
31906;SDS011;18455;50.858;13.662;2023-06-05T11:42:45;4.50;;;3.10;;
31906;SDS011;18455;50.858;13.662;2023-06-05T11:47:45;17.40;;;3.57;;
31906;SDS011;18455;50.858;13.662;2023-06-05T11:52:46;2.63;;;2.43;;
31906;SDS011;18455;50.858;13.662;2023-06-05T11:57:46;6.55;;;3.00;;
31906;SDS011;18455;50.858;13.662;2023-06-05T12:02:48;4.53;;;2.75;;
31906;SDS011;18455;50.858;13.662;2023-06-05T12:07:49;5.05;;;2.97;;
31906;SDS011;18455;50.858;13.662;2023-06-05T12:12:53;5.20;;;3.00;;
31906;SDS011;18455;50.858;13.662;2023-06-05T12:17:54;7.88;;;2.90;;
31906;SDS011;18455;50.858;13.662;2023-06-05T12:22:55;6.55;;;3.20;;
31906;SDS011;18455;50.858;13.662;2023-06-05T12:27:56;3.80;;;3.05;;
31906;SDS011;18455;50.858;13.662;2023-06-05T12:33:03;12.48;;;3.80;;
31906;SDS011;18455;50.858;13.662;2023-06-05T12:38:04;10.45;;;2.78;;
31906;SDS011;18455;50.858;13.662;2023-06-05T12:43:15;4.25;;;2.58;;
31906;SDS011;18455;50.858;13.662;2023-06-05T12:48:16;6.28;;;3.20;;
31906;SDS011;18455;50.858;13.662;2023-06-05T12:53:17;3.00;;;2.42;;
31906;SDS011;18455;50.858;13.662;2023-06-05T12:58:18;5.68;;;2.55;;
31906;SDS011;18455;50.858;13.662;2023-06-05T13:03:18;4.88;;;2.33;;
31906;SDS011;18455;50.858;13.662;2023-06-05T13:08:18;4.15;;;2.58;;
31906;SDS011;18455;50.858;13.662;2023-06-05T13:13:19;8.57;;;2.80;;
31906;SDS011;18455;50.858;13.662;2023-06-05T13:18:20;8.30;;;2.78;;
31906;SDS011;18455;50.858;13.662;2023-06-05T13:23:21;4.90;;;2.80;;
31906;SDS011;18455;50.858;13.662;2023-06-05T13:28:21;4.70;;;3.03;;
31906;SDS011;18455;50.858;13.662;2023-06-05T13:33:22;5.13;;;2.40;;
31906;SDS011;18455;50.858;13.662;2023-06-05T13:38:24;7.55;;;2.88;;
31906;SDS011;18455;50.858;13.662;2023-06-05T13:43:25;8.47;;;2.70;;
31906;SDS011;18455;50.858;13.662;2023-06-05T13:48:25;4.77;;;2.60;;
31906;SDS011;18455;50.858;13.662;2023-06-05T13:53:25;5.50;;;2.60;;
31906;SDS011;18455;50.858;13.662;2023-06-05T13:58:27;5.18;;;2.85;;
31906;SDS011;18455;50.858;13.662;2023-06-05T14:03:27;3.53;;;2.50;;
31906;SDS011;18455;50.858;13.662;2023-06-05T14:08:28;3.47;;;2.67;;
31906;SDS011;18455;50.858;13.662;2023-06-05T14:13:29;5.53;;;2.83;;
31906;SDS011;18455;50.858;13.662;2023-06-05T14:18:29;9.15;;;3.22;;
31906;SDS011;18455;50.858;13.662;2023-06-05T14:23:30;5.03;;;2.95;;
31906;SDS011;18455;50.858;13.662;2023-06-05T14:28:30;5.70;;;2.38;;
31906;SDS011;18455;50.858;13.662;2023-06-05T14:33:30;6.38;;;3.00;;
31906;SDS011;18455;50.858;13.662;2023-06-05T14:38:31;7.55;;;3.08;;
31906;SDS011;18455;50.858;13.662;2023-06-05T14:43:31;7.40;;;2.88;;
31906;SDS011;18455;50.858;13.662;2023-06-05T14:48:32;8.30;;;2.80;;
31906;SDS011;18455;50.858;13.662;2023-06-05T14:53:32;5.35;;;2.92;;
31906;SDS011;18455;50.858;13.662;2023-06-05T14:58:32;6.03;;;2.88;;
31906;SDS011;18455;50.858;13.662;2023-06-05T15:03:33;4.18;;;2.70;;
31906;SDS011;18455;50.858;13.662;2023-06-05T15:08:33;5.18;;;2.40;;
31906;SDS011;18455;50.858;13.662;2023-06-05T15:13:33;10.13;;;3.22;;
31906;SDS011;18455;50.858;13.662;2023-06-05T15:18:34;13.93;;;4.47;;
31906;SDS011;18455;50.858;13.662;2023-06-05T15:23:34;8.27;;;3.22;;
31906;SDS011;18455;50.858;13.662;2023-06-05T15:28:34;6.47;;;3.25;;
31906;SDS011;18455;50.858;13.662;2023-06-05T15:33:35;21.42;;;6.75;;
31906;SDS011;18455;50.858;13.662;2023-06-05T15:38:35;9.50;;;2.72;;
31906;SDS011;18455;50.858;13.662;2023-06-05T15:43:35;7.72;;;3.13;;
31906;SDS011;18455;50.858;13.662;2023-06-05T15:48:36;8.98;;;3.53;;
31906;SDS011;18455;50.858;13.662;2023-06-05T15:53:37;10.10;;;3.83;;
31906;SDS011;18455;50.858;13.662;2023-06-05T15:58:37;5.88;;;3.90;;
31906;SDS011;18455;50.858;13.662;2023-06-05T16:03:38;11.57;;;4.38;;
31906;SDS011;18455;50.858;13.662;2023-06-05T16:08:39;8.65;;;4.78;;
31906;SDS011;18455;50.858;13.662;2023-06-05T16:13:39;10.38;;;4.32;;
31906;SDS011;18455;50.858;13.662;2023-06-05T16:18:40;5.90;;;3.97;;
31906;SDS011;18455;50.858;13.662;2023-06-05T16:23:40;7.32;;;3.55;;
31906;SDS011;18455;50.858;13.662;2023-06-05T16:28:40;5.07;;;3.80;;
31906;SDS011;18455;50.858;13.662;2023-06-05T16:33:41;7.47;;;4.25;;
31906;SDS011;18455;50.858;13.662;2023-06-05T16:38:41;7.38;;;3.65;;
31906;SDS011;18455;50.858;13.662;2023-06-05T16:43:43;8.05;;;3.90;;
31906;SDS011;18455;50.858;13.662;2023-06-05T16:48:43;6.13;;;3.90;;
31906;SDS011;18455;50.858;13.662;2023-06-05T16:53:45;8.07;;;4.55;;
31906;SDS011;18455;50.858;13.662;2023-06-05T16:58:45;5.85;;;4.40;;
31906;SDS011;18455;50.858;13.662;2023-06-05T17:03:46;10.75;;;4.70;;
31906;SDS011;18455;50.858;13.662;2023-06-05T17:08:50;6.03;;;4.13;;
31906;SDS011;18455;50.858;13.662;2023-06-05T17:13:50;7.38;;;4.53;;
31906;SDS011;18455;50.858;13.662;2023-06-05T17:18:51;10.38;;;4.50;;
31906;SDS011;18455;50.858;13.662;2023-06-05T17:23:51;7.97;;;4.82;;
31906;SDS011;18455;50.858;13.662;2023-06-05T17:28:52;5.82;;;3.92;;
31906;SDS011;18455;50.858;13.662;2023-06-05T17:33:57;7.90;;;4.40;;
31906;SDS011;18455;50.858;13.662;2023-06-05T17:38:58;6.25;;;4.13;;
31906;SDS011;18455;50.858;13.662;2023-06-05T17:43:58;9.88;;;4.78;;
31906;SDS011;18455;50.858;13.662;2023-06-05T17:48:59;10.38;;;4.63;;
31906;SDS011;18455;50.858;13.662;2023-06-05T17:53:59;7.63;;;4.65;;
31906;SDS011;18455;50.858;13.662;2023-06-05T17:59:00;9.63;;;4.78;;
31906;SDS011;18455;50.858;13.662;2023-06-05T18:04:00;10.43;;;4.65;;
31906;SDS011;18455;50.858;13.662;2023-06-05T18:09:01;7.22;;;4.80;;
31906;SDS011;18455;50.858;13.662;2023-06-05T18:14:01;8.55;;;4.57;;
31906;SDS011;18455;50.858;13.662;2023-06-05T18:19:01;10.25;;;5.82;;
31906;SDS011;18455;50.858;13.662;2023-06-05T18:24:02;9.10;;;5.20;;
31906;SDS011;18455;50.858;13.662;2023-06-05T18:29:02;7.72;;;4.35;;
31906;SDS011;18455;50.858;13.662;2023-06-05T18:34:03;5.32;;;4.82;;
31906;SDS011;18455;50.858;13.662;2023-06-05T18:39:03;7.25;;;4.63;;
31906;SDS011;18455;50.858;13.662;2023-06-05T18:44:03;8.52;;;5.10;;
31906;SDS011;18455;50.858;13.662;2023-06-05T18:49:04;13.30;;;4.82;;
31906;SDS011;18455;50.858;13.662;2023-06-05T18:54:04;6.68;;;4.95;;
31906;SDS011;18455;50.858;13.662;2023-06-05T18:59:05;7.97;;;4.68;;
31906;SDS011;18455;50.858;13.662;2023-06-05T19:04:05;7.65;;;5.25;;
31906;SDS011;18455;50.858;13.662;2023-06-05T19:09:06;9.75;;;4.35;;
31906;SDS011;18455;50.858;13.662;2023-06-05T19:14:06;5.95;;;3.95;;
31906;SDS011;18455;50.858;13.662;2023-06-05T19:19:06;9.50;;;3.55;;
31906;SDS011;18455;50.858;13.662;2023-06-05T19:24:07;7.93;;;3.75;;
31906;SDS011;18455;50.858;13.662;2023-06-05T19:29:07;8.05;;;3.95;;
31906;SDS011;18455;50.858;13.662;2023-06-05T19:34:08;8.82;;;4.53;;
31906;SDS011;18455;50.858;13.662;2023-06-05T19:39:08;7.60;;;3.30;;
31906;SDS011;18455;50.858;13.662;2023-06-05T19:44:09;8.50;;;4.20;;
31906;SDS011;18455;50.858;13.662;2023-06-05T19:49:12;6.18;;;3.35;;
31906;SDS011;18455;50.858;13.662;2023-06-05T19:54:12;8.02;;;4.07;;
31906;SDS011;18455;50.858;13.662;2023-06-05T19:59:13;6.47;;;3.42;;
31906;SDS011;18455;50.858;13.662;2023-06-05T20:04:13;7.30;;;3.67;;
31906;SDS011;18455;50.858;13.662;2023-06-05T20:09:14;8.02;;;3.75;;
31906;SDS011;18455;50.858;13.662;2023-06-05T20:14:14;6.80;;;3.50;;
31906;SDS011;18455;50.858;13.662;2023-06-05T20:19:14;8.05;;;3.80;;
31906;SDS011;18455;50.858;13.662;2023-06-05T20:24:15;6.30;;;3.47;;
31906;SDS011;18455;50.858;13.662;2023-06-05T20:29:15;6.32;;;3.63;;
31906;SDS011;18455;50.858;13.662;2023-06-05T20:34:19;5.55;;;3.47;;
31906;SDS011;18455;50.858;13.662;2023-06-05T20:39:20;6.05;;;3.53;;
31906;SDS011;18455;50.858;13.662;2023-06-05T20:44:20;6.78;;;2.85;;
31906;SDS011;18455;50.858;13.662;2023-06-05T20:49:22;4.65;;;3.42;;
31906;SDS011;18455;50.858;13.662;2023-06-05T20:54:22;6.18;;;3.22;;
31906;SDS011;18455;50.858;13.662;2023-06-05T20:59:22;9.85;;;3.50;;
31906;SDS011;18455;50.858;13.662;2023-06-05T21:04:23;6.63;;;3.38;;
31906;SDS011;18455;50.858;13.662;2023-06-05T21:09:23;8.52;;;3.60;;
31906;SDS011;18455;50.858;13.662;2023-06-05T21:14:23;6.50;;;3.63;;
31906;SDS011;18455;50.858;13.662;2023-06-05T21:19:24;4.93;;;3.50;;
31906;SDS011;18455;50.858;13.662;2023-06-05T21:24:24;6.35;;;3.33;;
31906;SDS011;18455;50.858;13.662;2023-06-05T21:29:25;4.80;;;3.20;;
31906;SDS011;18455;50.858;13.662;2023-06-05T21:34:27;8.30;;;3.55;;
31906;SDS011;18455;50.858;13.662;2023-06-05T21:39:27;6.70;;;3.60;;
31906;SDS011;18455;50.858;13.662;2023-06-05T21:44:28;6.75;;;3.45;;
31906;SDS011;18455;50.858;13.662;2023-06-05T21:49:28;8.07;;;3.97;;
31906;SDS011;18455;50.858;13.662;2023-06-05T21:54:28;5.47;;;3.92;;
31906;SDS011;18455;50.858;13.662;2023-06-05T21:59:29;5.45;;;3.20;;
31906;SDS011;18455;50.858;13.662;2023-06-05T22:04:29;6.13;;;4.55;;
31906;SDS011;18455;50.858;13.662;2023-06-05T22:09:31;4.80;;;3.90;;
31906;SDS011;18455;50.858;13.662;2023-06-05T22:14:32;4.97;;;4.43;;
31906;SDS011;18455;50.858;13.662;2023-06-05T22:19:32;8.57;;;4.10;;
31906;SDS011;18455;50.858;13.662;2023-06-05T22:24:33;4.75;;;4.18;;
31906;SDS011;18455;50.858;13.662;2023-06-05T22:29:34;6.68;;;4.47;;
31906;SDS011;18455;50.858;13.662;2023-06-05T22:34:34;8.85;;;5.47;;
31906;SDS011;18455;50.858;13.662;2023-06-05T22:39:34;9.90;;;5.63;;
31906;SDS011;18455;50.858;13.662;2023-06-05T22:44:35;7.47;;;5.60;;
31906;SDS011;18455;50.858;13.662;2023-06-05T22:49:36;12.30;;;6.10;;
31906;SDS011;18455;50.858;13.662;2023-06-05T22:54:37;9.90;;;6.25;;
31906;SDS011;18455;50.858;13.662;2023-06-05T22:59:37;9.35;;;6.20;;
31906;SDS011;18455;50.858;13.662;2023-06-05T23:04:37;9.95;;;6.30;;
31906;SDS011;18455;50.858;13.662;2023-06-05T23:09:44;9.50;;;6.85;;
31906;SDS011;18455;50.858;13.662;2023-06-05T23:14:45;7.30;;;5.88;;
31906;SDS011;18455;50.858;13.662;2023-06-05T23:19:46;10.10;;;6.28;;
31906;SDS011;18455;50.858;13.662;2023-06-05T23:24:46;10.77;;;8.10;;
31906;SDS011;18455;50.858;13.662;2023-06-05T23:29:47;10.57;;;8.00;;
31906;SDS011;18455;50.858;13.662;2023-06-05T23:34:47;16.17;;;8.27;;
31906;SDS011;18455;50.858;13.662;2023-06-05T23:39:47;8.95;;;7.95;;
31906;SDS011;18455;50.858;13.662;2023-06-05T23:44:48;9.50;;;7.15;;
31906;SDS011;18455;50.858;13.662;2023-06-05T23:49:49;8.52;;;7.43;;
31906;SDS011;18455;50.858;13.662;2023-06-05T23:54:49;13.35;;;7.55;;
31906;SDS011;18455;50.858;13.662;2023-06-05T23:59:50;9.10;;;7.32;;
